Accueil
METAR-TAF:

METAR-TAF

Aéroports :

Turin, Italie

latitude: 45-05-20N, longitude: 007-36-20E, altitude: 288 m

Observation

Le bulletin a été fait il y a 1 heure et 12 minutes, à 09:50 UTC
Vent 3 kt de est/nord-est
Température 8°C
Humidité 36%
Pression 1016 hPa
Visibilité 10 km ou plus
Nuages épars à une hauteur de 3500 ft

METAR: LIMA 290950Z 07003KT 9999 SCT035 08/M06 Q1016

Heure: 12:02 (11:02 UTC)


TAF: absent

Observations et prévisions météorologiques de plus de 4000 aéroports (messages METAR et TAF).

Les stations disponibles sont représentées par des disques jaunes et rouges sur la carte.

Passer la souris dessus pour voir le nom de la station.

Cliquer dessus pour voir les observations et prévisions météorologiques.

Pour changer de carte: cliquez sur les boutons verts avec une croix noire pour zoomer, sur le bouton vert avec un tiret pour effectuer un zoom arrière, ou sur les flèches vertes pour les cartes adjacentes.


METAR-TAF: